Time,TemperatureF,DewpointF,PressureIn,WindDirection,WindDirectionDegrees,WindSpeedMPH,WindSpeedGustMPH,Humidity,HourlyPrecipIn,Conditions,Clouds,dailyrainin,SoftwareType,DateUTC
2013-05-16 00:01:00,66.9,53.5,29.32,West,270,4.7,6.6,62,0.00,,---,0.00,VWS V14.00,2013-05-16 05:01:00,
2013-05-16 00:06:00,67.1,53.7,29.32,West,276,4.7,6.6,62,0.00,,---,0.00,VWS V14.00,2013-05-16 05:06:00,
2013-05-16 00:11:00,67.3,53.4,29.32,WSW,252,0.0,5.8,61,0.00,,---,0.00,VWS V14.00,2013-05-16 05:11:00,
2013-05-16 00:16:00,67.5,53.6,29.29,West,259,0.0,1.0,61,0.00,,---,0.00,VWS V14.00,2013-05-16 05:16:00,
2013-05-16 00:21:00,67.6,53.3,29.29,WSW,247,4.0,5.8,60,0.00,,---,0.00,VWS V14.00,2013-05-16 05:21:00,
2013-05-16 00:26:00,67.6,53.3,29.29,WSW,256,4.7,6.6,60,0.00,,---,0.00,VWS V14.00,2013-05-16 05:26:00,
2013-05-16 00:31:00,67.8,53.4,29.29,WSW,254,0.0,7.4,60,0.00,,---,0.00,VWS V14.00,2013-05-16 05:31:00,
2013-05-16 00:36:00,68.0,53.2,29.29,WSW,245,3.4,5.0,59,0.00,,---,0.00,VWS V14.00,2013-05-16 05:36:00,
2013-05-16 00:41:00,68.0,53.2,29.29,WSW,258,0.0,1.0,59,0.00,,---,0.00,VWS V14.00,2013-05-16 05:41:00,
2013-05-16 00:46:00,68.2,53.3,29.29,WSW,255,0.0,1.0,59,0.00,,---,0.00,VWS V14.00,2013-05-16 05:46:00,
2013-05-16 00:51:00,68.2,53.3,29.29,West,262,0.0,5.0,59,0.00,,---,0.00,VWS V14.00,2013-05-16 05:51:00,
2013-05-16 00:56:00,68.4,53.5,29.29,SW,226,0.0,1.0,59,0.00,,---,0.00,VWS V14.00,2013-05-16 05:56:00,
2013-05-16 01:01:00,68.4,53.5,29.29,SW,221,4.0,5.8,59,0.00,,---,0.00,VWS V14.00,2013-05-16 06:01:00,
2013-05-16 01:06:00,68.4,53.5,29.29,WNW,285,0.0,1.0,59,0.00,,---,0.00,VWS V14.00,2013-05-16 06:06:00,
2013-05-16 01:11:00,68.4,53.5,29.29,SW,224,4.0,5.8,59,0.00,,---,0.00,VWS V14.00,2013-05-16 06:11:00,
2013-05-16 01:16:00,68.4,53.5,29.29,WSW,244,0.0,1.0,59,0.00,,---,0.00,VWS V14.00,2013-05-16 06:16:00,
2013-05-16 01:21:00,68.2,53.3,29.29,SW,223,0.0,1.0,59,0.00,,---,0.00,VWS V14.00,2013-05-16 06:21:00,
2013-05-16 01:26:00,68.2,53.3,29.29,WSW,244,4.0,8.2,59,0.00,,---,0.00,VWS V14.00,2013-05-16 06:26:00,
2013-05-16 01:31:00,68.4,53.5,29.29,WSW,245,0.0,1.0,59,0.00,,---,0.00,VWS V14.00,2013-05-16 06:31:00,
2013-05-16 01:36:00,68.2,53.3,29.29,West,266,6.0,8.2,59,0.00,,---,0.00,VWS V14.00,2013-05-16 06:36:00,
2013-05-16 01:41:00,68.2,53.3,29.29,WSW,240,0.0,1.0,59,0.00,,---,0.00,VWS V14.00,2013-05-16 06:41:00,
2013-05-16 01:46:00,68.4,53.5,29.29,West,263,0.0,1.0,59,0.00,,---,0.00,VWS V14.00,2013-05-16 06:46:00,
2013-05-16 01:51:00,68.2,53.3,29.29,West,265,0.0,1.0,59,0.00,,---,0.00,VWS V14.00,2013-05-16 06:51:00,
2013-05-16 01:56:00,68.2,53.3,29.29,WNW,299,0.0,1.0,59,0.00,,---,0.00,VWS V14.00,2013-05-16 06:56:00,
2013-05-16 02:01:00,68.2,53.3,29.29,West,261,0.0,1.0,59,0.00,,---,0.00,VWS V14.00,2013-05-16 07:01:00,
2013-05-16 02:06:00,68.0,53.2,29.29,West,280,4.0,5.8,59,0.00,,---,0.00,VWS V14.00,2013-05-16 07:06:00,
2013-05-16 02:11:00,68.2,53.3,29.29,West,260,4.7,6.6,59,0.00,,---,0.00,VWS V14.00,2013-05-16 07:11:00,
2013-05-16 02:16:00,68.2,53.3,29.29,WSW,244,4.7,6.6,59,0.00,,---,0.00,VWS V14.00,2013-05-16 07:16:00,
2013-05-16 02:21:00,68.0,53.2,29.29,WSW,255,0.0,1.0,59,0.00,,---,0.00,VWS V14.00,2013-05-16 07:21:00,
2013-05-16 02:26:00,68.2,53.3,29.29,NW,313,4.0,5.8,59,0.00,,---,0.00,VWS V14.00,2013-05-16 07:26:00,
2013-05-16 02:31:00,68.0,53.6,29.29,WSW,247,4.0,5.8,60,0.00,,---,0.00,VWS V14.00,2013-05-16 07:31:00,
2013-05-16 02:36:00,68.2,53.8,29.29,WSW,249,3.4,5.0,60,0.00,,---,0.00,VWS V14.00,2013-05-16 07:36:00,
2013-05-16 02:41:00,68.2,53.8,29.29,WSW,245,0.0,1.0,60,0.00,,---,0.00,VWS V14.00,2013-05-16 07:41:00,
2013-05-16 02:46:00,68.4,53.5,29.29,WSW,248,4.0,5.8,59,0.00,,---,0.00,VWS V14.00,2013-05-16 07:46:00,
2013-05-16 02:51:00,68.5,53.7,29.29,WSW,244,0.0,5.8,59,0.00,,---,0.00,VWS V14.00,2013-05-16 07:51:00,
2013-05-16 02:56:00,68.7,53.4,29.29,West,262,5.4,7.4,58,0.00,,---,0.00,VWS V14.00,2013-05-16 07:56:00,
2013-05-16 03:01:00,68.7,53.4,29.29,West,263,4.7,6.6,58,0.00,,---,0.00,VWS V14.00,2013-05-16 08:01:00,
2013-05-16 03:06:00,68.7,53.4,29.29,WSW,237,6.0,9.9,58,0.00,,---,0.00,VWS V14.00,2013-05-16 08:06:00,
2013-05-16 03:11:00,69.1,53.7,29.29,WNW,297,8.7,11.5,58,0.00,,---,0.00,VWS V14.00,2013-05-16 08:11:00,
2013-05-16 03:16:00,69.4,53.6,29.29,WSW,257,4.7,6.6,57,0.00,,---,0.00,VWS V14.00,2013-05-16 08:16:00,
2013-05-16 03:21:00,69.4,53.6,29.29,West,259,0.0,5.0,57,0.00,,---,0.00,VWS V14.00,2013-05-16 08:21:00,
2013-05-16 03:26:00,69.3,53.4,29.29,WSW,258,4.7,8.2,57,0.00,,---,0.00,VWS V14.00,2013-05-16 08:26:00,
2013-05-16 03:31:00,69.3,53.4,29.29,WSW,254,5.4,7.4,57,0.00,,---,0.00,VWS V14.00,2013-05-16 08:31:00,
2013-05-16 03:36:00,69.1,53.2,29.29,West,266,4.7,6.6,57,0.00,,---,0.00,VWS V14.00,2013-05-16 08:36:00,
2013-05-16 03:41:00,69.3,53.4,29.29,West,265,4.0,5.8,57,0.00,,---,0.00,VWS V14.00,2013-05-16 08:41:00,
2013-05-16 03:46:00,69.1,53.7,29.29,WSW,251,6.0,8.2,58,0.00,,---,0.00,VWS V14.00,2013-05-16 08:46:00,
2013-05-16 03:51:00,69.1,53.7,29.29,WNW,290,6.0,8.2,58,0.00,,---,0.00,VWS V14.00,2013-05-16 08:51:00,
2013-05-16 03:56:00,69.1,53.7,29.29,NW,317,6.0,8.2,58,0.00,,---,0.00,VWS V14.00,2013-05-16 08:56:00,
2013-05-16 04:01:00,69.1,53.7,29.29,West,262,4.0,6.6,58,0.00,,---,0.00,VWS V14.00,2013-05-16 09:01:00,
2013-05-16 04:06:00,68.9,53.5,29.29,WSW,250,5.4,7.4,58,0.00,,---,0.00,VWS V14.00,2013-05-16 09:06:00,
2013-05-16 04:11:00,69.1,53.7,29.29,WSW,253,4.0,5.8,58,0.00,,---,0.00,VWS V14.00,2013-05-16 09:11:00,
2013-05-16 04:16:00,69.1,53.7,29.29,West,266,4.7,6.6,58,0.00,,---,0.00,VWS V14.00,2013-05-16 09:16:00,
2013-05-16 04:21:00,68.9,53.5,29.29,SSW,208,5.4,7.4,58,0.00,,---,0.00,VWS V14.00,2013-05-16 09:21:00,
2013-05-16 04:26:00,68.9,53.5,29.29,SW,235,3.4,5.0,58,0.00,,---,0.00,VWS V14.00,2013-05-16 09:26:00,
2013-05-16 04:31:00,68.9,53.5,29.29,West,280,4.7,6.6,58,0.00,,---,0.00,VWS V14.00,2013-05-16 09:31:00,
2013-05-16 04:36:00,68.9,53.5,29.29,SW,235,0.0,1.0,58,0.00,,---,0.00,VWS V14.00,2013-05-16 09:36:00,
2013-05-16 04:41:00,68.7,53.8,29.29,West,274,4.0,5.8,59,0.00,,---,0.00,VWS V14.00,2013-05-16 09:41:00,
2013-05-16 04:46:00,68.7,53.8,29.29,West,267,4.0,5.8,59,0.00,,---,0.00,VWS V14.00,2013-05-16 09:46:00,
2013-05-16 04:51:00,68.5,53.7,29.29,NNW,337,6.0,8.2,59,0.00,,---,0.00,VWS V14.00,2013-05-16 09:51:00,
2013-05-16 04:56:00,68.4,53.5,29.29,NNW,348,0.0,1.0,59,0.00,,---,0.00,VWS V14.00,2013-05-16 09:56:00,
2013-05-16 05:01:00,68.2,53.3,29.29,NNW,348,0.0,1.0,59,0.00,,---,0.00,VWS V14.00,2013-05-16 10:01:00,
2013-05-16 05:06:00,68.2,53.3,29.29,NNW,348,0.0,1.0,59,0.00,,---,0.00,VWS V14.00,2013-05-16 10:06:00,
2013-05-16 05:11:00,67.5,53.6,29.29,WSW,251,0.0,1.0,61,0.00,,---,0.00,VWS V14.00,2013-05-16 10:11:00,
2013-05-16 05:16:00,67.3,53.8,29.29,WSW,251,0.0,1.0,62,0.00,,---,0.00,VWS V14.00,2013-05-16 10:16:00,
2013-05-16 05:21:00,67.1,54.1,29.29,WSW,251,0.0,1.0,63,0.00,,---,0.00,VWS V14.00,2013-05-16 10:21:00,
2013-05-16 05:26:00,66.9,54.4,29.29,WSW,251,0.0,1.0,64,0.00,,---,0.00,VWS V14.00,2013-05-16 10:26:00,
2013-05-16 05:31:00,66.9,54.4,29.29,West,264,0.0,1.0,64,0.00,,---,0.00,VWS V14.00,2013-05-16 10:31:00,
2013-05-16 05:36:00,66.7,54.6,29.32,West,272,4.0,5.8,65,0.00,,---,0.00,VWS V14.00,2013-05-16 10:36:00,
2013-05-16 05:41:00,66.9,54.8,29.32,West,266,0.0,1.0,65,0.00,,---,0.00,VWS V14.00,2013-05-16 10:41:00,
2013-05-16 05:46:00,66.7,54.6,29.32,West,266,0.0,1.0,65,0.00,,---,0.00,VWS V14.00,2013-05-16 10:46:00,
2013-05-16 05:51:00,66.9,54.8,29.32,WNW,294,0.0,1.0,65,0.00,,---,0.00,VWS V14.00,2013-05-16 10:51:00,
2013-05-16 05:56:00,66.7,54.6,29.32,WNW,294,0.0,1.0,65,0.00,,---,0.00,VWS V14.00,2013-05-16 10:56:00,
2013-05-16 06:01:00,66.7,54.6,29.32,WNW,294,0.0,1.0,65,0.00,,---,0.00,VWS V14.00,2013-05-16 11:01:00,
2013-05-16 06:06:00,66.7,54.6,29.32,West,281,4.7,6.6,65,0.00,,---,0.00,VWS V14.00,2013-05-16 11:06:00,
2013-05-16 06:11:00,66.7,54.6,29.32,West,275,0.0,1.0,65,0.00,,---,0.00,VWS V14.00,2013-05-16 11:11:00,
2013-05-16 06:16:00,66.7,55.0,29.32,WNW,284,4.0,5.8,66,0.00,,---,0.00,VWS V14.00,2013-05-16 11:16:00,
2013-05-16 06:21:00,66.7,55.0,29.32,West,261,4.7,6.6,66,0.00,,---,0.00,VWS V14.00,2013-05-16 11:21:00,
2013-05-16 06:26:00,66.7,55.0,29.32,WNW,283,4.0,5.8,66,0.00,,---,0.00,VWS V14.00,2013-05-16 11:26:00,
2013-05-16 06:31:00,66.7,55.0,29.32,West,276,4.7,6.6,66,0.00,,---,0.00,VWS V14.00,2013-05-16 11:31:00,
2013-05-16 06:36:00,66.7,55.0,29.32,West,266,0.0,1.0,66,0.00,,---,0.00,VWS V14.00,2013-05-16 11:36:00,
2013-05-16 06:41:00,66.9,55.2,29.32,West,259,4.0,5.8,66,0.00,,---,0.00,VWS V14.00,2013-05-16 11:41:00,
2013-05-16 06:46:00,66.9,55.2,29.35,South,176,0.0,1.0,66,0.00,,---,0.00,VWS V14.00,2013-05-16 11:46:00,
2013-05-16 06:51:00,66.9,55.2,29.35,SE,132,0.0,1.0,66,0.00,,---,0.00,VWS V14.00,2013-05-16 11:51:00,
2013-05-16 06:56:00,66.9,55.2,29.35,NW,310,0.0,1.0,66,0.00,,---,0.00,VWS V14.00,2013-05-16 11:56:00,
2013-05-16 07:01:00,66.9,55.6,29.35,NNW,332,0.0,1.0,67,0.00,,---,0.00,VWS V14.00,2013-05-16 12:01:00,
2013-05-16 07:06:00,67.1,55.8,29.35,NNW,332,0.0,1.0,67,0.00,,---,0.00,VWS V14.00,2013-05-16 12:06:00,
2013-05-16 07:11:00,67.1,56.2,29.35,WNW,290,6.0,8.2,68,0.00,,---,0.00,VWS V14.00,2013-05-16 12:11:00,
2013-05-16 07:16:00,67.1,56.2,29.32,NW,304,0.0,1.0,68,0.00,,---,0.00,VWS V14.00,2013-05-16 12:16:00,
2013-05-16 07:21:00,67.1,56.2,29.32,West,274,4.0,5.8,68,0.00,,---,0.00,VWS V14.00,2013-05-16 12:21:00,
2013-05-16 07:26:00,66.9,56.0,29.32,WSW,257,4.0,5.8,68,0.00,,---,0.00,VWS V14.00,2013-05-16 12:26:00,
2013-05-16 07:31:00,66.9,56.0,29.35,West,265,0.0,1.0,68,0.00,,---,0.00,VWS V14.00,2013-05-16 12:31:00,
2013-05-16 07:36:00,66.7,56.3,29.35,West,266,0.0,1.0,69,0.00,,---,0.00,VWS V14.00,2013-05-16 12:36:00,
2013-05-16 07:41:00,66.7,56.3,29.35,West,266,0.0,1.0,69,0.00,,---,0.00,VWS V14.00,2013-05-16 12:41:00,
2013-05-16 07:46:00,66.9,56.8,29.35,West,266,0.0,1.0,70,0.00,,---,0.00,VWS V14.00,2013-05-16 12:46:00,
2013-05-16 07:51:00,66.9,56.8,29.35,West,266,0.0,1.0,70,0.00,,---,0.00,VWS V14.00,2013-05-16 12:51:00,
2013-05-16 07:56:00,67.1,57.0,29.35,West,266,0.0,1.0,70,0.00,,---,0.00,VWS V14.00,2013-05-16 12:56:00,
2013-05-16 08:01:00,67.5,57.7,29.35,SSW,195,0.0,1.0,71,0.00,,---,0.00,VWS V14.00,2013-05-16 13:01:00,
2013-05-16 08:06:00,67.6,57.9,29.35,SSW,195,0.0,1.0,71,0.00,,---,0.00,VWS V14.00,2013-05-16 13:06:00,
2013-05-16 08:11:00,68.0,58.3,29.35,SSW,195,0.0,1.0,71,0.00,,---,0.00,VWS V14.00,2013-05-16 13:11:00,
2013-05-16 08:16:00,68.2,58.4,29.35,SSW,195,0.0,1.0,71,0.00,,---,0.00,VWS V14.00,2013-05-16 13:16:00,
2013-05-16 08:21:00,68.4,58.2,29.35,West,266,0.0,1.0,70,0.00,,---,0.00,VWS V14.00,2013-05-16 13:21:00,
2013-05-16 08:26:00,68.4,58.2,29.35,West,277,0.0,1.0,70,0.00,,---,0.00,VWS V14.00,2013-05-16 13:26:00,
2013-05-16 08:31:00,68.7,58.5,29.35,NW,304,0.0,1.0,70,0.00,,---,0.00,VWS V14.00,2013-05-16 13:31:00,
2013-05-16 08:36:00,68.7,58.5,29.35,West,259,4.7,6.6,70,0.00,,---,0.00,VWS V14.00,2013-05-16 13:36:00,
2013-05-16 08:41:00,69.3,58.7,29.35,West,267,3.4,5.0,69,0.00,,---,0.00,VWS V14.00,2013-05-16 13:41:00,
2013-05-16 08:46:00,69.4,58.8,29.35,WSW,247,0.0,1.0,69,0.00,,---,0.00,VWS V14.00,2013-05-16 13:46:00,
2013-05-16 08:51:00,69.6,58.6,29.35,West,265,0.0,1.0,68,0.00,,---,0.00,VWS V14.00,2013-05-16 13:51:00,
2013-05-16 08:56:00,70.0,59.0,29.35,SW,234,3.4,5.0,68,0.00,,---,0.00,VWS V14.00,2013-05-16 13:56:00,
2013-05-16 09:01:00,70.2,59.1,29.35,WSW,242,0.0,1.0,68,0.00,,---,0.00,VWS V14.00,2013-05-16 14:01:00,
2013-05-16 09:06:00,70.3,58.9,29.35,West,266,4.0,5.8,67,0.00,,---,0.00,VWS V14.00,2013-05-16 14:06:00,
2013-05-16 09:11:00,70.5,59.0,29.35,West,262,5.4,7.4,67,0.00,,---,0.00,VWS V14.00,2013-05-16 14:11:00,
2013-05-16 09:16:00,70.7,59.2,29.35,West,274,3.4,5.0,67,0.00,,---,0.00,VWS V14.00,2013-05-16 14:16:00,
2013-05-16 09:21:00,70.9,59.4,29.35,WNW,292,3.4,5.0,67,0.00,,---,0.00,VWS V14.00,2013-05-16 14:21:00,
2013-05-16 09:26:00,71.1,59.6,29.35,WSW,241,0.0,1.0,67,0.00,,---,0.00,VWS V14.00,2013-05-16 14:26:00,
2013-05-16 09:31:00,71.1,59.6,29.35,West,262,0.0,1.0,67,0.00,,---,0.00,VWS V14.00,2013-05-16 14:31:00,
2013-05-16 09:36:00,71.8,59.8,29.35,WNW,283,6.0,8.2,66,0.00,,---,0.00,VWS V14.00,2013-05-16 14:36:00,
2013-05-16 09:41:00,72.3,59.9,29.35,WSW,245,4.7,6.6,65,0.00,,---,0.00,VWS V14.00,2013-05-16 14:41:00,
2013-05-16 09:46:00,72.7,60.2,29.35,SSW,212,0.0,1.0,65,0.00,,---,0.00,VWS V14.00,2013-05-16 14:46:00,
2013-05-16 09:51:00,72.9,60.0,29.35,SSW,211,0.0,1.0,64,0.00,,---,0.00,VWS V14.00,2013-05-16 14:51:00,
2013-05-16 09:56:00,73.0,60.2,29.35,West,274,0.0,6.6,64,0.00,,---,0.00,VWS V14.00,2013-05-16 14:56:00,
2013-05-16 10:01:00,73.0,60.2,29.35,WSW,257,0.0,1.0,64,0.00,,---,0.00,VWS V14.00,2013-05-16 15:01:00,
2013-05-16 10:06:00,73.0,60.2,29.35,SSW,211,3.4,6.6,64,0.00,,---,0.00,VWS V14.00,2013-05-16 15:06:00,
2013-05-16 10:11:00,72.9,59.1,29.35,WNW,286,4.0,5.8,62,0.00,,---,0.00,VWS V14.00,2013-05-16 15:11:00,
2013-05-16 10:16:00,72.7,59.4,29.35,WSW,254,4.0,5.8,63,0.00,,---,0.00,VWS V14.00,2013-05-16 15:16:00,
2013-05-16 10:21:00,72.7,58.5,29.35,SW,219,5.4,7.4,61,0.00,,---,0.00,VWS V14.00,2013-05-16 15:21:00,
2013-05-16 10:26:00,73.0,59.3,29.35,WNW,293,5.4,7.4,62,0.00,,---,0.00,VWS V14.00,2013-05-16 15:26:00,
2013-05-16 10:31:00,73.2,59.0,29.35,SW,231,3.4,5.0,61,0.00,,---,0.00,VWS V14.00,2013-05-16 15:31:00,
2013-05-16 10:36:00,73.6,59.3,29.35,West,277,3.4,5.0,61,0.00,,---,0.00,VWS V14.00,2013-05-16 15:36:00,
2013-05-16 10:41:00,73.6,59.3,29.35,West,271,0.0,1.0,61,0.00,,---,0.00,VWS V14.00,2013-05-16 15:41:00,
2013-05-16 10:46:00,74.1,58.9,29.35,West,274,5.4,7.4,59,0.00,,---,0.00,VWS V14.00,2013-05-16 15:46:00,
2013-05-16 10:51:00,74.3,58.1,29.35,West,272,6.0,8.2,57,0.00,,---,0.00,VWS V14.00,2013-05-16 15:51:00,
2013-05-16 10:56:00,74.5,58.3,29.35,SW,214,5.4,7.4,57,0.00,,---,0.00,VWS V14.00,2013-05-16 15:56:00,
2013-05-16 11:01:00,74.3,57.1,29.35,WSW,244,7.4,9.9,55,0.00,,---,0.00,VWS V14.00,2013-05-16 16:01:00,
2013-05-16 11:06:00,74.7,56.9,29.35,SW,219,7.4,9.9,54,0.00,,---,0.00,VWS V14.00,2013-05-16 16:06:00,
2013-05-16 11:11:00,74.7,56.9,29.35,West,271,0.0,5.8,54,0.00,,---,0.00,VWS V14.00,2013-05-16 16:11:00,
2013-05-16 11:16:00,74.3,55.6,29.35,West,265,7.4,9.9,52,0.00,,---,0.00,VWS V14.00,2013-05-16 16:16:00,
2013-05-16 11:21:00,74.1,56.4,29.35,WSW,258,4.7,6.6,54,0.00,,---,0.00,VWS V14.00,2013-05-16 16:21:00,
2013-05-16 11:26:00,74.1,56.4,29.35,WSW,246,0.0,5.0,54,0.00,,---,0.00,VWS V14.00,2013-05-16 16:26:00,
2013-05-16 11:31:00,74.1,57.4,29.35,West,276,5.4,7.4,56,0.00,,---,0.00,VWS V14.00,2013-05-16 16:31:00,
2013-05-16 11:36:00,74.1,57.4,29.35,West,264,0.0,1.0,56,0.00,,---,0.00,VWS V14.00,2013-05-16 16:36:00,
2013-05-16 11:41:00,73.9,57.3,29.35,West,264,0.0,1.0,56,0.00,,---,0.00,VWS V14.00,2013-05-16 16:41:00,
2013-05-16 11:46:00,73.8,56.6,29.35,West,259,3.4,5.8,55,0.00,,---,0.00,VWS V14.00,2013-05-16 16:46:00,
2013-05-16 11:51:00,73.6,56.9,29.35,West,259,3.4,5.0,56,0.00,,---,0.00,VWS V14.00,2013-05-16 16:51:00,
2013-05-16 11:56:00,73.6,56.9,29.35,WNW,287,0.0,1.0,56,0.00,,---,0.00,VWS V14.00,2013-05-16 16:56:00,
2013-05-16 12:01:00,73.8,58.1,29.35,WNW,291,0.0,5.0,58,0.00,,---,0.00,VWS V14.00,2013-05-16 17:01:00,
2013-05-16 12:06:00,73.6,56.9,29.35,West,268,0.0,1.0,56,0.00,,---,0.00,VWS V14.00,2013-05-16 17:06:00,
2013-05-16 12:11:00,73.6,56.9,29.35,West,281,3.4,5.0,56,0.00,,---,0.00,VWS V14.00,2013-05-16 17:11:00,
2013-05-16 12:16:00,73.4,57.3,29.35,West,281,0.0,1.0,57,0.00,,---,0.00,VWS V14.00,2013-05-16 17:16:00,
2013-05-16 12:21:00,73.2,57.6,29.35,West,275,0.0,1.0,58,0.00,,---,0.00,VWS V14.00,2013-05-16 17:21:00,
2013-05-16 12:26:00,73.0,57.9,29.35,West,275,0.0,1.0,59,0.00,,---,0.00,VWS V14.00,2013-05-16 17:26:00,
2013-05-16 12:31:00,73.0,57.9,29.35,West,275,0.0,1.0,59,0.00,,---,0.00,VWS V14.00,2013-05-16 17:31:00,
2013-05-16 12:36:00,72.9,58.2,29.35,West,275,0.0,1.0,60,0.00,,---,0.00,VWS V14.00,2013-05-16 17:36:00,
2013-05-16 12:41:00,72.9,58.2,29.35,West,275,0.0,1.0,60,0.00,,---,0.00,VWS V14.00,2013-05-16 17:41:00,
2013-05-16 12:46:00,72.9,59.1,29.32,West,276,0.0,1.0,62,0.00,,---,0.00,VWS V14.00,2013-05-16 17:46:00,
2013-05-16 12:51:00,73.0,58.8,29.32,West,275,0.0,1.0,61,0.00,,---,0.00,VWS V14.00,2013-05-16 17:51:00,
2013-05-16 12:56:00,73.0,58.8,29.32,West,276,0.0,1.0,61,0.00,,---,0.00,VWS V14.00,2013-05-16 17:56:00,
2013-05-16 13:01:00,73.2,59.0,29.32,West,276,0.0,1.0,61,0.00,,---,0.00,VWS V14.00,2013-05-16 18:01:00,
2013-05-16 13:06:00,73.2,59.0,29.32,West,276,0.0,1.0,61,0.00,,---,0.00,VWS V14.00,2013-05-16 18:06:00,
2013-05-16 13:11:00,73.4,57.3,29.32,West,276,0.0,1.0,57,0.00,,---,0.00,VWS V14.00,2013-05-16 18:11:00,
2013-05-16 13:16:00,73.4,58.2,29.32,West,276,0.0,1.0,59,0.00,,---,0.00,VWS V14.00,2013-05-16 18:16:00,
2013-05-16 13:21:00,73.4,58.7,29.32,West,275,0.0,1.0,60,0.00,,---,0.00,VWS V14.00,2013-05-16 18:21:00,
2013-05-16 13:26:00,73.2,59.0,29.32,SSW,193,4.0,5.8,61,0.00,,---,0.00,VWS V14.00,2013-05-16 18:26:00,
2013-05-16 13:31:00,73.2,58.5,29.32,SSE,158,0.0,1.0,60,0.00,,---,0.00,VWS V14.00,2013-05-16 18:31:00,
2013-05-16 13:37:00,73.2,58.5,29.32,SE,132,0.0,1.0,60,0.00,,---,0.00,VWS V14.00,2013-05-16 18:37:00,
2013-05-16 13:42:00,73.4,59.2,29.32,SSE,162,0.0,1.0,61,0.00,,---,0.00,VWS V14.00,2013-05-16 18:42:00,
2013-05-16 13:47:00,73.4,59.2,29.32,SSE,151,0.0,1.0,61,0.00,,---,0.00,VWS V14.00,2013-05-16 18:47:00,
2013-05-16 13:52:00,73.6,59.3,29.32,SSE,151,0.0,1.0,61,0.00,,---,0.00,VWS V14.00,2013-05-16 18:52:00,
2013-05-16 13:57:00,73.8,58.5,29.32,SSE,152,0.0,1.0,59,0.00,,---,0.00,VWS V14.00,2013-05-16 18:57:00,
2013-05-16 14:02:00,73.8,58.5,29.32,SSE,150,4.0,5.8,59,0.00,,---,0.00,VWS V14.00,2013-05-16 19:02:00,
2013-05-16 14:07:00,73.9,57.8,29.32,SSE,151,4.0,5.8,57,0.00,,---,0.00,VWS V14.00,2013-05-16 19:07:00,
2013-05-16 14:12:00,73.9,57.8,29.32,SE,144,0.0,1.0,57,0.00,,---,0.00,VWS V14.00,2013-05-16 19:12:00,
2013-05-16 14:17:00,73.8,57.1,29.32,SSE,153,4.0,5.8,56,0.00,,---,0.00,VWS V14.00,2013-05-16 19:17:00,
2013-05-16 14:22:00,73.9,57.3,29.32,SSE,157,0.0,1.0,56,0.00,,---,0.00,VWS V14.00,2013-05-16 19:22:00,
2013-05-16 14:27:00,73.9,57.3,29.32,SE,146,4.0,5.8,56,0.00,,---,0.00,VWS V14.00,2013-05-16 19:27:00,
2013-05-16 14:32:00,74.1,57.4,29.32,SSE,159,5.4,7.4,56,0.00,,---,0.00,VWS V14.00,2013-05-16 19:32:00,
2013-05-16 14:37:00,74.3,56.6,29.32,SE,141,0.0,1.0,54,0.00,,---,0.00,VWS V14.00,2013-05-16 19:37:00,
2013-05-16 14:42:00,74.5,57.3,29.32,SE,141,0.0,1.0,55,0.00,,---,0.00,VWS V14.00,2013-05-16 19:42:00,
2013-05-16 14:47:00,74.3,56.6,29.32,SE,141,0.0,1.0,54,0.00,,---,0.00,VWS V14.00,2013-05-16 19:47:00,
2013-05-16 14:52:00,74.7,56.9,29.29,SE,141,0.0,1.0,54,0.00,,---,0.00,VWS V14.00,2013-05-16 19:52:00,
2013-05-16 14:57:00,74.8,56.6,29.29,SSE,166,4.0,5.8,53,0.00,,---,0.00,VWS V14.00,2013-05-16 19:57:00,
2013-05-16 15:02:00,74.8,56.6,29.29,ESE,119,0.0,1.0,53,0.00,,---,0.00,VWS V14.00,2013-05-16 20:02:00,
2013-05-16 15:07:00,75.0,57.3,29.29,SE,130,0.0,1.0,54,0.00,,---,0.00,VWS V14.00,2013-05-16 20:07:00,
2013-05-16 15:12:00,75.4,57.6,29.29,South,172,4.7,6.6,54,0.00,,---,0.00,VWS V14.00,2013-05-16 20:12:00,
2013-05-16 15:17:00,75.6,57.2,29.29,SSE,166,0.0,6.6,53,0.00,,---,0.00,VWS V14.00,2013-05-16 20:17:00,
2013-05-16 15:22:00,75.6,57.8,29.29,SSE,166,0.0,1.0,54,0.00,,---,0.00,VWS V14.00,2013-05-16 20:22:00,
2013-05-16 15:27:00,75.7,57.9,29.29,SSE,166,0.0,1.0,54,0.00,,---,0.00,VWS V14.00,2013-05-16 20:27:00,
2013-05-16 15:32:00,75.7,58.4,29.29,SSE,161,0.0,1.0,55,0.00,,---,0.00,VWS V14.00,2013-05-16 20:32:00,
2013-05-16 15:37:00,75.7,57.9,29.29,SE,137,3.4,5.0,54,0.00,,---,0.00,VWS V14.00,2013-05-16 20:37:00,
2013-05-16 15:42:00,75.9,57.6,29.29,ESE,120,0.0,5.8,53,0.00,,---,0.00,VWS V14.00,2013-05-16 20:42:00,
2013-05-16 15:47:00,75.9,57.6,29.29,SSE,149,8.1,10.7,53,0.00,,---,0.00,VWS V14.00,2013-05-16 20:47:00,
2013-05-16 15:52:00,76.3,58.4,29.29,SSE,154,0.0,1.0,54,0.00,,---,0.00,VWS V14.00,2013-05-16 20:52:00,
2013-05-16 15:57:00,76.5,58.1,29.29,SSE,164,5.4,10.7,53,0.00,,---,0.00,VWS V14.00,2013-05-16 20:57:00,
2013-05-16 16:02:00,76.5,58.1,29.29,SSE,152,8.7,11.5,53,0.00,,---,0.00,VWS V14.00,2013-05-16 21:02:00,
2013-05-16 16:07:00,76.5,57.5,29.29,SSE,157,3.4,5.0,52,0.00,,---,0.00,VWS V14.00,2013-05-16 21:07:00,
2013-05-16 16:12:00,76.5,57.5,29.29,SSE,152,3.4,5.0,52,0.00,,---,0.00,VWS V14.00,2013-05-16 21:12:00,
2013-05-16 16:17:00,76.6,58.2,29.29,SSE,152,3.4,6.6,53,0.00,,---,0.00,VWS V14.00,2013-05-16 21:17:00,
2013-05-16 16:22:00,77.2,58.7,29.29,South,180,7.4,9.9,53,0.00,,---,0.00,VWS V14.00,2013-05-16 21:22:00,
2013-05-16 16:27:00,77.2,58.7,29.29,South,185,6.0,8.2,53,0.00,,---,0.00,VWS V14.00,2013-05-16 21:27:00,
2013-05-16 16:32:00,77.2,58.2,29.29,SE,141,0.0,5.8,52,0.00,,---,0.00,VWS V14.00,2013-05-16 21:32:00,
2013-05-16 16:37:00,77.7,58.7,29.29,SSE,164,5.4,7.4,52,0.00,,---,0.00,VWS V14.00,2013-05-16 21:37:00,
2013-05-16 16:42:00,77.9,58.9,29.29,South,171,3.4,5.0,52,0.00,,---,0.00,VWS V14.00,2013-05-16 21:42:00,
2013-05-16 16:47:00,77.9,58.9,29.29,SW,221,3.4,5.8,52,0.00,,---,0.00,VWS V14.00,2013-05-16 21:47:00,
2013-05-16 16:52:00,77.9,58.9,29.29,SE,145,0.0,1.0,52,0.00,,---,0.00,VWS V14.00,2013-05-16 21:52:00,
2013-05-16 16:57:00,78.1,59.0,29.29,SE,144,4.0,5.8,52,0.00,,---,0.00,VWS V14.00,2013-05-16 21:57:00,
2013-05-16 17:02:00,77.7,58.7,29.29,South,181,4.7,6.6,52,0.00,,---,0.00,VWS V14.00,2013-05-16 22:02:00,
2013-05-16 17:07:00,77.4,58.9,29.29,SE,144,3.4,5.0,53,0.00,,---,0.00,VWS V14.00,2013-05-16 22:07:00,
2013-05-16 17:12:00,77.2,58.7,29.29,SSE,165,4.0,5.8,53,0.00,,---,0.00,VWS V14.00,2013-05-16 22:12:00,
2013-05-16 17:17:00,77.0,59.1,29.29,SSE,160,6.0,8.2,54,0.00,,---,0.00,VWS V14.00,2013-05-16 22:17:00,
2013-05-16 17:22:00,76.8,58.9,29.29,SSE,159,4.0,5.8,54,0.00,,---,0.00,VWS V14.00,2013-05-16 22:22:00,
2013-05-16 17:27:00,76.8,59.5,29.29,SSE,150,0.0,1.0,55,0.00,,---,0.00,VWS V14.00,2013-05-16 22:27:00,
2013-05-16 17:32:00,76.6,59.3,29.26,SSE,150,4.7,6.6,55,0.00,,---,0.00,VWS V14.00,2013-05-16 22:32:00,
2013-05-16 17:37:00,76.5,60.1,29.26,SSE,150,0.0,1.0,57,0.00,,---,0.00,VWS V14.00,2013-05-16 22:37:00,
2013-05-16 17:42:00,75.9,60.1,29.26,SSE,150,0.0,1.0,58,0.00,,---,0.00,VWS V14.00,2013-05-16 22:42:00,
2013-05-16 17:47:00,75.6,60.2,29.26,SSE,150,0.0,1.0,59,0.00,,---,0.00,VWS V14.00,2013-05-16 22:47:00,
2013-05-16 17:52:00,74.8,60.0,29.26,SSE,150,3.4,5.0,60,0.00,,---,0.00,VWS V14.00,2013-05-16 22:52:00,
2013-05-16 17:57:00,73.9,59.7,29.26,SSE,150,0.0,1.0,61,0.00,,---,0.04,VWS V14.00,2013-05-16 22:57:00,
2013-05-16 18:02:00,73.4,60.5,29.26,ESE,116,4.0,5.8,64,0.63,,---,0.08,VWS V14.00,2013-05-16 23:02:00,
2013-05-16 18:07:00,73.0,60.2,29.26,ENE,78,0.0,1.0,64,0.63,,---,0.08,VWS V14.00,2013-05-16 23:07:00,
2013-05-16 18:12:00,71.8,59.8,29.26,ENE,78,0.0,1.0,66,0.63,,---,0.08,VWS V14.00,2013-05-16 23:12:00,
2013-05-16 18:17:00,71.8,59.8,29.26,ENE,78,0.0,1.0,66,0.63,,---,0.08,VWS V14.00,2013-05-16 23:17:00,
2013-05-16 18:22:00,70.9,60.6,29.26,ENE,78,0.0,1.0,70,0.63,,---,0.08,VWS V14.00,2013-05-16 23:22:00,
2013-05-16 18:27:00,70.7,61.2,29.26,ENE,78,0.0,1.0,72,0.63,,---,0.08,VWS V14.00,2013-05-16 23:27:00,
2013-05-16 18:32:00,70.5,61.5,29.26,ENE,78,0.0,1.0,73,0.63,,---,0.08,VWS V14.00,2013-05-16 23:32:00,
2013-05-16 18:37:00,70.5,61.5,29.26,ENE,78,0.0,1.0,73,0.63,,---,0.08,VWS V14.00,2013-05-16 23:37:00,
2013-05-16 18:42:00,70.3,61.7,29.26,ENE,78,0.0,1.0,74,0.63,,---,0.08,VWS V14.00,2013-05-16 23:42:00,
2013-05-16 18:47:00,69.8,62.3,29.26,ENE,78,0.0,1.0,77,0.63,,---,0.08,VWS V14.00,2013-05-16 23:47:00,
2013-05-16 18:52:00,69.8,62.3,29.26,ENE,78,0.0,1.0,77,0.63,,---,0.08,VWS V14.00,2013-05-16 23:52:00,
2013-05-16 18:57:00,69.6,62.8,29.26,WSW,247,0.0,1.0,79,0.63,,---,0.08,VWS V14.00,2013-05-16 23:57:00,
2013-05-16 19:02:00,69.6,63.2,29.26,WSW,247,0.0,1.0,80,0.63,,---,0.08,VWS V14.00,2013-05-17 00:02:00,
2013-05-16 19:07:00,69.6,63.5,29.26,WSW,247,0.0,1.0,81,0.63,,---,0.08,VWS V14.00,2013-05-17 00:07:00,
2013-05-16 19:12:00,69.3,63.2,29.26,WSW,246,0.0,1.0,81,0.63,,---,0.08,VWS V14.00,2013-05-17 00:12:00,
2013-05-16 19:17:00,68.9,63.2,29.26,WSW,246,0.0,1.0,82,0.63,,---,0.08,VWS V14.00,2013-05-17 00:17:00,
2013-05-16 19:22:00,68.5,62.8,29.26,WSW,246,0.0,1.0,82,0.63,,---,0.08,VWS V14.00,2013-05-17 00:22:00,
2013-05-16 19:27:00,68.2,62.5,29.26,WSW,246,0.0,1.0,82,0.63,,---,0.08,VWS V14.00,2013-05-17 00:27:00,
2013-05-16 19:32:00,68.2,62.5,29.26,WSW,246,0.0,1.0,82,0.63,,---,0.08,VWS V14.00,2013-05-17 00:32:00,
2013-05-16 19:37:00,67.8,62.5,29.26,WSW,246,0.0,1.0,83,0.63,,---,0.08,VWS V14.00,2013-05-17 00:37:00,
2013-05-16 19:42:00,67.5,62.1,29.26,WSW,246,0.0,1.0,83,0.63,,---,0.08,VWS V14.00,2013-05-17 00:42:00,
2013-05-16 19:47:00,67.5,62.1,29.29,WSW,246,0.0,1.0,83,0.63,,---,0.08,VWS V14.00,2013-05-17 00:47:00,
2013-05-16 19:52:00,67.1,61.8,29.29,WSW,246,0.0,1.0,83,0.63,,---,0.08,VWS V14.00,2013-05-17 00:52:00,
2013-05-16 19:57:00,66.7,61.4,29.29,WSW,246,0.0,1.0,83,0.63,,---,0.08,VWS V14.00,2013-05-17 00:57:00,
2013-05-16 20:02:00,66.7,61.4,29.26,WSW,246,0.0,1.0,83,0.63,,---,0.08,VWS V14.00,2013-05-17 01:02:00,
2013-05-16 20:07:00,66.6,61.2,29.26,WSW,246,0.0,1.0,83,0.00,,---,0.08,VWS V14.00,2013-05-17 01:07:00,
2013-05-16 20:12:00,66.6,61.2,29.26,WSW,246,0.0,1.0,83,0.00,,---,0.08,VWS V14.00,2013-05-17 01:12:00,
2013-05-16 20:17:00,66.4,61.4,29.26,WSW,246,0.0,1.0,84,0.00,,---,0.08,VWS V14.00,2013-05-17 01:17:00,
2013-05-16 20:22:00,66.2,61.2,29.26,WSW,246,0.0,1.0,84,0.00,,---,0.08,VWS V14.00,2013-05-17 01:22:00,
2013-05-16 20:27:00,65.7,60.7,29.26,WSW,246,0.0,1.0,84,0.00,,---,0.08,VWS V14.00,2013-05-17 01:27:00,
2013-05-16 20:32:00,65.7,60.7,29.26,WSW,246,0.0,1.0,84,0.00,,---,0.08,VWS V14.00,2013-05-17 01:32:00,
2013-05-16 20:37:00,65.3,60.3,29.29,WSW,246,0.0,1.0,84,0.00,,---,0.08,VWS V14.00,2013-05-17 01:37:00,
2013-05-16 20:42:00,65.3,60.3,29.29,WSW,246,0.0,1.0,84,0.00,,---,0.08,VWS V14.00,2013-05-17 01:42:00,
2013-05-16 20:47:00,65.1,60.2,29.29,WSW,246,0.0,1.0,84,0.00,,---,0.08,VWS V14.00,2013-05-17 01:47:00,
2013-05-16 20:52:00,64.9,60.0,29.29,WSW,246,0.0,1.0,84,0.00,,---,0.08,VWS V14.00,2013-05-17 01:52:00,
2013-05-16 20:57:00,64.9,60.3,29.29,WSW,246,0.0,1.0,85,0.00,,---,0.08,VWS V14.00,2013-05-17 01:57:00,
2013-05-16 21:02:00,64.9,60.3,29.29,WSW,246,0.0,1.0,85,0.00,,---,0.08,VWS V14.00,2013-05-17 02:02:00,
2013-05-16 21:07:00,64.8,60.2,29.29,WSW,246,0.0,1.0,85,0.00,,---,0.08,VWS V14.00,2013-05-17 02:07:00,
2013-05-16 21:12:00,64.8,60.2,29.29,WSW,246,0.0,1.0,85,0.00,,---,0.08,VWS V14.00,2013-05-17 02:12:00,
2013-05-16 21:17:00,64.8,60.2,29.26,WSW,246,0.0,1.0,85,0.00,,---,0.08,VWS V14.00,2013-05-17 02:17:00,
2013-05-16 21:22:00,64.8,60.5,29.26,WSW,246,0.0,1.0,86,0.00,,---,0.08,VWS V14.00,2013-05-17 02:22:00,
2013-05-16 21:27:00,64.8,60.5,29.26,WSW,246,0.0,1.0,86,0.00,,---,0.08,VWS V14.00,2013-05-17 02:27:00,
2013-05-16 21:32:00,64.8,60.5,29.29,SSW,194,0.0,1.0,86,0.00,,---,0.08,VWS V14.00,2013-05-17 02:32:00,
2013-05-16 21:37:00,64.8,60.5,29.29,SSW,194,0.0,1.0,86,0.00,,---,0.08,VWS V14.00,2013-05-17 02:37:00,
2013-05-16 21:42:00,64.8,60.5,29.29,SSW,194,0.0,1.0,86,0.00,,---,0.08,VWS V14.00,2013-05-17 02:42:00,
2013-05-16 21:47:00,64.6,60.3,29.29,SSW,194,0.0,1.0,86,0.00,,---,0.08,VWS V14.00,2013-05-17 02:47:00,
2013-05-16 21:52:00,64.6,60.3,29.29,SSW,194,0.0,1.0,86,0.00,,---,0.08,VWS V14.00,2013-05-17 02:52:00,
2013-05-16 21:57:00,64.4,60.1,29.29,SSW,194,0.0,1.0,86,0.00,,---,0.08,VWS V14.00,2013-05-17 02:57:00,
2013-05-16 22:02:00,64.2,60.3,29.29,SSW,194,0.0,1.0,87,0.00,,---,0.08,VWS V14.00,2013-05-17 03:02:00,
2013-05-16 22:07:00,63.9,59.9,29.29,SSW,194,0.0,1.0,87,0.00,,---,0.08,VWS V14.00,2013-05-17 03:07:00,
2013-05-16 22:12:00,63.9,59.9,29.29,SSW,194,0.0,1.0,87,0.00,,---,0.08,VWS V14.00,2013-05-17 03:12:00,
2013-05-16 22:17:00,63.5,59.6,29.29,SSW,194,0.0,1.0,87,0.00,,---,0.08,VWS V14.00,2013-05-17 03:17:00,
2013-05-16 22:22:00,63.5,59.6,29.29,SSW,194,0.0,1.0,87,0.00,,---,0.08,VWS V14.00,2013-05-17 03:22:00,
2013-05-16 22:27:00,63.3,59.4,29.29,SSW,194,0.0,1.0,87,0.00,,---,0.08,VWS V14.00,2013-05-17 03:27:00,
2013-05-16 22:32:00,63.3,59.4,29.29,SSW,194,0.0,1.0,87,0.00,,---,0.08,VWS V14.00,2013-05-17 03:32:00,
2013-05-16 22:37:00,63.3,59.4,29.29,SSW,194,0.0,1.0,87,0.00,,---,0.08,VWS V14.00,2013-05-17 03:37:00,
2013-05-16 22:42:00,63.1,59.2,29.29,SSW,194,0.0,1.0,87,0.00,,---,0.08,VWS V14.00,2013-05-17 03:42:00,
2013-05-16 22:47:00,63.1,59.2,29.29,SSW,194,0.0,1.0,87,0.00,,---,0.08,VWS V14.00,2013-05-17 03:47:00,
2013-05-16 22:52:00,63.1,59.2,29.29,SSW,194,0.0,1.0,87,0.00,,---,0.08,VWS V14.00,2013-05-17 03:52:00,
2013-05-16 22:57:00,63.1,59.2,29.29,SSW,194,0.0,1.0,87,0.00,,---,0.08,VWS V14.00,2013-05-17 03:57:00,
2013-05-16 23:01:00,63.1,59.2,29.29,SSW,194,0.0,1.0,87,0.00,,---,0.08,VWS V14.00,2013-05-17 04:01:00,
2013-05-16 23:06:00,63.1,59.2,29.29,SSW,194,0.0,1.0,87,0.00,,---,0.08,VWS V14.00,2013-05-17 04:06:00,
2013-05-16 23:11:00,63.0,59.0,29.29,SSW,194,0.0,1.0,87,0.00,,---,0.08,VWS V14.00,2013-05-17 04:11:00,
2013-05-16 23:16:00,63.0,59.0,29.29,SSW,194,0.0,1.0,87,0.00,,---,0.08,VWS V14.00,2013-05-17 04:16:00,
2013-05-16 23:21:00,63.0,59.0,29.29,SSW,194,0.0,1.0,87,0.00,,---,0.08,VWS V14.00,2013-05-17 04:21:00,
2013-05-16 23:26:00,62.8,58.9,29.29,SSW,194,0.0,1.0,87,0.00,,---,0.08,VWS V14.00,2013-05-17 04:26:00,
2013-05-16 23:31:00,62.8,58.9,29.32,SSW,194,0.0,1.0,87,0.00,,---,0.08,VWS V14.00,2013-05-17 04:31:00,
2013-05-16 23:36:00,62.8,58.9,29.32,SSW,194,0.0,1.0,87,0.00,,---,0.08,VWS V14.00,2013-05-17 04:36:00,
2013-05-16 23:41:00,62.8,58.9,29.32,SSW,194,0.0,1.0,87,0.00,,---,0.08,VWS V14.00,2013-05-17 04:41:00,
2013-05-16 23:46:00,62.8,58.9,29.32,SSW,194,0.0,1.0,87,0.00,,---,0.08,VWS V14.00,2013-05-17 04:46:00,
2013-05-16 23:51:00,63.0,59.0,29.32,SSW,194,0.0,1.0,87,0.00,,---,0.08,VWS V14.00,2013-05-17 04:51:00,
2013-05-16 23:56:00,63.0,59.0,29.32,SSW,194,0.0,1.0,87,0.00,,---,0.08,VWS V14.00,2013-05-17 04:56:00,